Time;durP1;ratioP1;P1;durP2;ratioP2;P2;SDS_P1;SDS_P2;PMS_P1;PMS_P2;Temp;Humidity;BMP_temperature;BMP_pressure;BME280_temperature;BME280_humidity;BME280_pressure;Samples;Min_cycle;Max_cycle;Signal;HPM_P1;HPM_P2
2023/06/12 00:01:12;;;;;;;9.13;5.93;;;;;;;21.11;83.44;99185.94;5041145;28;20033;-62
2023/06/12 00:03:40;;;;;;;7.72;5.95;;;;;;;21.10;82.45;99187.00;5042374;28;20087;-63
2023/06/12 00:06:09;;;;;;;7.68;5.72;;;;;;;21.16;81.50;99180.63;5042060;28;20127;-63
2023/06/12 00:08:35;;;;;;;7.32;5.90;;;;;;;21.11;82.06;99183.25;5040999;28;20483;-62
2023/06/12 00:11:07;;;;;;;6.30;5.30;;;;;;;20.93;82.26;99175.41;5041738;28;20123;-62
2023/06/12 00:13:33;;;;;;;9.50;5.70;;;;;;;21.00;80.53;99184.13;5040026;28;20117;-63
2023/06/12 00:15:58;;;;;;;7.15;6.03;;;;;;;20.95;81.65;99187.56;5042355;28;20071;-63
2023/06/12 00:18:24;;;;;;;6.95;6.18;;;;;;;20.85;82.13;99186.56;5041542;28;20202;-63
2023/06/12 00:20:49;;;;;;;8.85;6.50;;;;;;;20.78;83.11;99185.88;5040562;28;20238;-62
2023/06/12 00:23:15;;;;;;;8.13;6.50;;;;;;;20.73;84.10;99179.34;5040398;28;20038;-63
2023/06/12 00:25:40;;;;;;;8.80;6.30;;;;;;;20.77;84.17;99187.75;5039137;28;20347;-62
2023/06/12 00:28:06;;;;;;;9.50;6.30;;;;;;;20.84;83.64;99193.81;5037898;28;20255;-63
2023/06/12 00:30:31;;;;;;;13.73;6.65;;;;;;;20.84;83.14;99190.31;5037918;28;20475;-62
2023/06/12 00:32:57;;;;;;;7.78;6.18;;;;;;;20.83;83.13;99200.25;5039367;28;20041;-63
2023/06/12 00:35:22;;;;;;;8.98;6.90;;;;;;;20.72;84.23;99199.22;5040169;28;20045;-62
2023/06/12 00:37:48;;;;;;;8.88;6.80;;;;;;;20.78;84.21;99200.13;5039649;28;20113;-62
2023/06/12 00:40:15;;;;;;;9.48;5.88;;;;;;;20.82;83.68;99201.31;5039518;28;20347;-63
2023/06/12 00:42:45;;;;;;;6.60;5.85;;;;;;;20.67;85.01;99203.69;5039538;28;20029;-62
2023/06/12 00:45:10;;;;;;;7.95;5.97;;;;;;;20.69;85.47;99196.19;5037534;28;20041;-62
2023/06/12 00:47:36;;;;;;;8.07;5.38;;;;;;;20.73;85.37;99202.72;5039209;28;20043;-63
2023/06/12 00:50:02;;;;;;;7.93;5.25;;;;;;;20.76;84.79;99194.19;5040035;28;20025;-62
2023/06/12 00:52:34;;;;;;;7.47;5.85;;;;;;;20.86;84.62;99202.47;5039934;28;20296;-62
2023/06/12 00:55:00;;;;;;;6.78;5.20;;;;;;;20.89;83.17;99210.06;5039755;28;20071;-62
2023/06/12 00:57:27;;;;;;;16.90;5.80;;;;;;;20.62;81.98;99206.28;5037893;28;20136;-63
2023/06/12 00:59:53;;;;;;;6.97;5.85;;;;;;;20.64;83.40;99206.88;5037523;28;20036;-62
2023/06/12 01:02:20;;;;;;;7.35;5.65;;;;;;;20.23;85.30;99202.53;5038480;28;20071;-62
2023/06/12 01:04:49;;;;;;;7.60;5.55;;;;;;;19.96;85.16;99196.88;5039474;28;20226;-62
2023/06/12 01:07:33;;;;;;;8.15;5.72;;;;;;;19.99;84.71;99197.22;5041287;28;20040;-62
2023/06/12 01:10:40;;;;;;;6.65;5.53;;;;;;;19.92;84.94;99206.44;5040570;28;20423;-62
2023/06/12 01:13:06;;;;;;;7.45;6.03;;;;;;;19.94;84.94;99199.78;5038890;28;20150;-62
2023/06/12 01:15:32;;;;;;;7.47;6.00;;;;;;;19.99;85.25;99191.00;5039355;28;20067;-62
2023/06/12 01:17:58;;;;;;;6.57;5.88;;;;;;;19.94;86.46;99198.97;5039923;28;20319;-63
2023/06/12 01:20:24;;;;;;;7.65;5.90;;;;;;;19.97;87.21;99209.25;5039469;28;20044;-62
2023/06/12 01:22:52;;;;;;;10.55;6.68;;;;;;;20.06;86.64;99205.97;5038404;28;20052;-62
2023/06/12 01:25:46;;;;;;;9.00;6.10;;;;;;;20.13;86.01;99200.47;5040320;28;20366;-62
2023/06/12 01:28:32;;;;;;;9.85;6.63;;;;;;;20.09;85.33;99201.97;5039959;28;20039;-63
2023/06/12 01:31:27;;;;;;;9.02;6.85;;;;;;;20.03;85.78;99202.94;5039488;28;20056;-62
2023/06/12 01:34:07;;;;;;;7.55;6.60;;;;;;;20.01;85.83;99200.47;5039785;28;20041;-63
2023/06/12 01:36:36;;;;;;;10.30;7.20;;;;;;;19.97;86.54;99198.50;5023014;28;20313;-62
2023/06/12 01:39:04;;;;;;;9.73;6.93;;;;;;;19.91;87.01;99194.06;5039018;28;20105;-62
2023/06/12 01:41:32;;;;;;;10.07;7.15;;;;;;;19.78;88.12;99197.81;5039322;28;20037;-62
2023/06/12 01:44:09;;;;;;;9.82;8.07;;;;;;;19.71;89.41;99202.47;5037904;28;20053;-62
2023/06/12 01:46:35;;;;;;;11.27;7.50;;;;;;;19.73;90.38;99206.56;5038484;28;20060;-62
2023/06/12 01:49:03;;;;;;;9.45;7.68;;;;;;;19.83;90.22;99210.56;5039044;28;20404;-62
2023/06/12 01:51:28;;;;;;;11.55;8.00;;;;;;;19.89;89.73;99217.66;5039957;28;20033;-63
2023/06/12 01:53:53;;;;;;;12.82;8.25;;;;;;;19.91;89.87;99215.56;5039159;28;20041;-62
2023/06/12 01:56:25;;;;;;;9.90;8.23;;;;;;;19.93;89.68;99218.84;5038004;28;20037;-62
2023/06/12 01:58:52;;;;;;;12.55;8.20;;;;;;;19.92;89.87;99211.81;5037846;28;20362;-62
2023/06/12 02:01:18;;;;;;;11.80;8.32;;;;;;;19.99;89.76;99207.13;5038611;28;20032;-62
2023/06/12 02:03:48;;;;;;;12.90;8.52;;;;;;;19.99;89.55;99207.97;5037588;28;20056;-62
2023/06/12 02:06:17;;;;;;;11.50;8.25;;;;;;;20.06;89.18;99214.03;5038113;28;20341;-62
2023/06/12 02:08:43;;;;;;;9.98;7.90;;;;;;;20.16;88.68;99218.78;5038429;28;20124;-62
2023/06/12 02:11:09;;;;;;;8.40;7.45;;;;;;;20.19;87.78;99212.94;5037979;28;20029;-62
2023/06/12 02:13:34;;;;;;;12.23;8.32;;;;;;;20.26;87.26;99216.31;5028426;28;20105;-62
2023/06/12 02:16:03;;;;;;;10.48;7.72;;;;;;;20.32;86.71;99214.56;5039655;28;20049;-63
2023/06/12 02:18:30;;;;;;;12.27;8.60;;;;;;;20.35;85.78;99224.81;5039020;28;20150;-62
2023/06/12 02:20:55;;;;;;;10.93;8.27;;;;;;;20.36;85.31;99223.78;5040487;28;20116;-63
2023/06/12 02:23:21;;;;;;;11.05;7.90;;;;;;;20.28;86.82;99219.59;5038911;28;20036;-62
2023/06/12 02:25:46;;;;;;;12.82;8.75;;;;;;;20.32;87.23;99214.56;5039497;28;20033;-62
2023/06/12 02:28:12;;;;;;;9.98;7.80;;;;;;;20.26;87.36;99212.81;5038782;28;20215;-62
2023/06/12 02:30:37;;;;;;;10.95;8.18;;;;;;;20.22;88.34;99225.91;5038617;28;20226;-62
2023/06/12 02:33:09;;;;;;;18.38;7.88;;;;;;;20.08;89.50;99228.03;5038943;28;20254;-63
2023/06/12 02:35:35;;;;;;;11.40;7.43;;;;;;;20.17;89.54;99225.81;5038655;28;20064;-63
2023/06/12 02:38:01;;;;;;;13.75;8.65;;;;;;;20.12;89.61;99219.50;5038457;28;20064;-63
2023/06/12 02:40:26;;;;;;;11.05;7.22;;;;;;;20.09;90.24;99223.47;5038404;28;20041;-62
2023/06/12 02:42:52;;;;;;;8.38;6.80;;;;;;;20.08;90.31;99225.34;5038571;28;20258;-62
2023/06/12 02:45:17;;;;;;;14.43;6.90;;;;;;;20.21;89.69;99226.97;5039332;28;20222;-62
2023/06/12 02:47:42;;;;;;;9.07;7.18;;;;;;;20.29;89.37;99237.34;5039034;28;20334;-63
2023/06/12 02:50:08;;;;;;;11.93;7.32;;;;;;;20.38;88.42;99230.53;5038158;28;20037;-62
2023/06/12 02:52:34;;;;;;;11.85;7.68;;;;;;;20.43;87.77;99240.63;5038283;28;20037;-62
2023/06/12 02:54:59;;;;;;;11.80;7.30;;;;;;;20.42;87.67;99248.94;5038336;28;20357;-62
2023/06/12 02:57:25;;;;;;;9.50;6.88;;;;;;;20.40;87.38;99241.91;5035635;28;20325;-63
2023/06/12 02:59:50;;;;;;;9.85;6.97;;;;;;;20.43;87.54;99239.81;5036096;28;20258;-62
2023/06/12 03:02:16;;;;;;;9.05;7.00;;;;;;;20.42;87.88;99243.56;5037248;28;20047;-63
2023/06/12 03:04:41;;;;;;;9.38;6.65;;;;;;;20.50;87.46;99235.91;5038053;28;20047;-62
2023/06/12 03:07:07;;;;;;;11.80;7.47;;;;;;;20.51;87.38;99242.94;5038754;28;20026;-62
2023/06/12 03:09:35;;;;;;;8.73;7.30;;;;;;;20.57;87.19;99250.03;5041364;28;20035;-62
2023/06/12 03:12:01;;;;;;;12.95;7.18;;;;;;;20.60;86.67;99249.56;5040080;28;20108;-62
2023/06/12 03:14:27;;;;;;;9.50;6.80;;;;;;;20.64;86.40;99255.28;5040411;28;20053;-63
2023/06/12 03:16:53;;;;;;;8.57;6.53;;;;;;;20.64;86.33;99249.91;5041365;28;20108;-62
2023/06/12 03:19:18;;;;;;;8.93;6.57;;;;;;;20.59;86.62;99249.81;5043262;28;20033;-63
2023/06/12 03:21:44;;;;;;;11.50;6.38;;;;;;;20.60;86.87;99251.44;5043059;28;20074;-62
2023/06/12 03:24:10;;;;;;;9.55;6.63;;;;;;;20.51;87.36;99242.94;5042011;28;20045;-62
2023/06/12 03:26:38;;;;;;;7.55;6.15;;;;;;;20.47;87.98;99247.16;5041951;28;20040;-63
2023/06/12 03:29:04;;;;;;;9.85;5.85;;;;;;;20.33;88.76;99260.03;5042440;28;20104;-62
2023/06/12 03:31:29;;;;;;;8.55;6.30;;;;;;;20.25;89.21;99254.19;5043255;28;20029;-63
2023/06/12 03:33:55;;;;;;;8.75;6.30;;;;;;;20.26;88.92;99258.50;5042144;28;20132;-63
2023/06/12 03:36:23;;;;;;;9.57;6.65;;;;;;;20.22;88.56;99260.03;5042247;28;20353;-62
2023/06/12 03:38:49;;;;;;;9.90;6.30;;;;;;;20.41;88.04;99264.25;5039616;28;20045;-63
2023/06/12 03:41:14;;;;;;;9.48;6.38;;;;;;;20.45;87.27;99262.72;5040157;28;20033;-62
2023/06/12 03:43:40;;;;;;;7.45;6.47;;;;;;;20.27;87.93;99263.66;5040600;28;20041;-63
2023/06/12 03:46:05;;;;;;;9.02;6.80;;;;;;;20.46;87.27;99255.47;5041746;28;20041;-62
2023/06/12 03:48:30;;;;;;;7.28;6.18;;;;;;;20.55;86.98;99254.03;5041198;28;20025;-63
2023/06/12 03:50:56;;;;;;;9.07;6.50;;;;;;;20.56;87.28;99266.44;5042525;28;20098;-62
2023/06/12 03:53:21;;;;;;;9.13;6.50;;;;;;;20.43;88.26;99261.31;5041522;28;20044;-61
2023/06/12 03:55:47;;;;;;;8.27;6.50;;;;;;;20.38;88.40;99262.00;5040787;28;20337;-62
2023/06/12 03:58:16;;;;;;;9.98;6.45;;;;;;;20.27;89.37;99269.03;5041984;28;20033;-62
2023/06/12 04:00:47;;;;;;;10.52;6.47;;;;;;;20.41;88.75;99266.94;5042352;28;20041;-63
2023/06/12 04:03:17;;;;;;;10.13;6.82;;;;;;;20.55;87.98;99267.47;5041639;28;20095;-62
2023/06/12 04:05:47;;;;;;;11.27;6.65;;;;;;;20.71;87.23;99254.09;5039022;28;20041;-62
2023/06/12 04:08:12;;;;;;;9.57;7.00;;;;;;;20.78;86.70;99253.94;5038806;28;20033;-63
2023/06/12 04:10:38;;;;;;;11.00;7.10;;;;;;;20.78;87.89;99256.63;5040337;28;20136;-63
2023/06/12 04:13:04;;;;;;;8.80;6.35;;;;;;;20.83;87.26;99261.34;5040805;28;20460;-62
2023/06/12 04:15:29;;;;;;;9.32;7.05;;;;;;;20.93;86.58;99254.25;5041973;28;20061;-62
2023/06/12 04:17:57;;;;;;;7.28;5.70;;;;;;;21.18;85.05;99261.97;5039034;28;20100;-63
2023/06/12 04:20:23;;;;;;;10.45;6.88;;;;;;;21.22;84.18;99260.47;5038147;28;20373;-62
2023/06/12 04:22:49;;;;;;;10.05;6.60;;;;;;;21.22;82.86;99252.38;5040213;28;20354;-63
2023/06/12 04:25:15;;;;;;;8.15;6.90;;;;;;;21.19;83.08;99262.78;5039928;28;20104;-62
2023/06/12 04:27:42;;;;;;;9.23;6.22;;;;;;;21.29;82.80;99254.94;5039673;28;20061;-62
2023/06/12 04:30:09;;;;;;;9.50;7.32;;;;;;;21.45;82.58;99258.69;5045908;28;20196;-62
2023/06/12 04:32:35;;;;;;;11.13;6.88;;;;;;;21.67;81.03;99248.81;5041379;28;20154;-63
2023/06/12 04:35:01;;;;;;;9.68;7.05;;;;;;;21.84;79.88;99255.00;5040826;28;20354;-62
2023/06/12 04:37:27;;;;;;;10.57;6.95;;;;;;;22.01;80.18;99248.78;5038727;28;20087;-62
2023/06/12 04:39:53;;;;;;;15.07;6.75;;;;;;;22.27;79.11;99258.88;5038824;28;20064;-62
2023/06/12 04:42:18;;;;;;;10.18;6.32;;;;;;;22.36;79.31;99262.78;5040130;28;20036;-62
2023/06/12 04:44:46;;;;;;;8.60;6.43;;;;;;;22.32;78.67;99258.13;5040799;28;20045;-63
2023/06/12 04:47:14;;;;;;;9.15;7.28;;;;;;;22.32;78.20;99260.84;5040684;28;20243;-63
2023/06/12 04:49:41;;;;;;;7.25;6.55;;;;;;;22.20;79.13;99258.25;5041543;28;20125;-63
2023/06/12 04:52:12;;;;;;;9.57;6.43;;;;;;;22.08;80.08;99269.16;5038861;28;20048;-63
2023/06/12 04:54:41;;;;;;;9.25;7.65;;;;;;;21.88;81.67;99266.94;5040646;28;20454;-62
2023/06/12 04:57:16;;;;;;;11.35;7.25;;;;;;;22.02;81.93;99253.94;5041186;28;20033;-62
2023/06/12 04:59:44;;;;;;;10.50;7.25;;;;;;;22.12;81.91;99264.88;5041223;28;20037;-62
2023/06/12 05:02:10;;;;;;;10.13;6.97;;;;;;;22.24;80.58;99267.47;5041620;28;20339;-62
2023/06/12 05:04:37;;;;;;;15.07;7.75;;;;;;;22.51;80.00;99275.63;5041655;28;20053;-62
2023/06/12 05:07:14;;;;;;;10.27;7.22;;;;;;;22.77;77.38;99274.06;5039153;28;20112;-62
2023/06/12 05:09:40;;;;;;;9.00;7.22;;;;;;;22.95;76.75;99279.19;5037656;28;20109;-62
2023/06/12 05:12:06;;;;;;;9.73;7.22;;;;;;;23.05;75.36;99281.97;5037066;28;20098;-63
2023/06/12 05:14:40;;;;;;;9.48;7.60;;;;;;;23.39;73.16;99276.34;5043991;28;20100;-63
2023/06/12 05:17:06;;;;;;;;;;;;;;;23.68;72.26;99276.91;5039101;28;20048;-63
2023/06/12 05:19:31;;;;;;;13.10;7.25;;;;;;;23.85;71.91;99274.84;5037227;28;20222;-63
2023/06/12 05:21:57;;;;;;;9.80;7.25;;;;;;;24.08;69.91;99279.91;5037493;28;20060;-62
2023/06/12 05:24:22;;;;;;;10.57;6.57;;;;;;;24.39;69.92;99271.97;5039409;28;20081;-62
2023/06/12 05:26:48;;;;;;;10.52;7.68;;;;;;;24.61;68.05;99277.22;5037524;28;20029;-63
2023/06/12 05:29:13;;;;;;;10.90;7.75;;;;;;;24.59;67.64;99277.47;5038062;28;20041;-63
2023/06/12 05:31:39;;;;;;;13.85;7.22;;;;;;;24.48;66.59;99273.91;5040087;28;20216;-62
2023/06/12 05:34:04;;;;;;;11.45;8.02;;;;;;;24.61;66.99;99278.03;5040455;28;20072;-62
2023/06/12 05:36:30;;;;;;;9.95;7.93;;;;;;;24.80;66.66;99270.25;5039174;28;20040;-62
2023/06/12 05:38:56;;;;;;;10.70;8.70;;;;;;;24.80;65.58;99272.94;5039471;28;20025;-62
2023/06/12 05:41:22;;;;;;;11.25;7.97;;;;;;;24.99;65.08;99266.03;5039014;28;20067;-62
2023/06/12 05:43:47;;;;;;;12.52;7.93;;;;;;;25.18;63.63;99274.44;5037497;28;20056;-63
2023/06/12 05:46:15;;;;;;;9.98;7.55;;;;;;;25.36;63.07;99271.22;5037152;28;20056;-63
2023/06/12 05:48:41;;;;;;;19.17;7.85;;;;;;;25.46;62.61;99273.13;5039913;28;20037;-62
2023/06/12 05:51:07;;;;;;;8.13;7.20;;;;;;;25.71;61.29;99272.31;5050996;28;20040;-64
2023/06/12 05:53:35;;;;;;;9.70;7.38;;;;;;;25.79;60.79;99277.19;5058162;28;20035;-63
2023/06/12 05:56:01;;;;;;;7.95;6.88;;;;;;;25.84;61.88;99279.91;5058491;28;20104;-63
2023/06/12 05:58:26;;;;;;;10.02;6.90;;;;;;;25.98;60.78;99275.53;5058433;28;20369;-62
2023/06/12 06:00:55;;;;;;;8.55;6.75;;;;;;;25.95;59.70;99270.66;5058564;28;20258;-63
2023/06/12 06:03:23;;;;;;;7.75;6.50;;;;;;;25.89;60.51;99277.19;5057766;28;20111;-63
2023/06/12 06:05:49;;;;;;;8.32;6.53;;;;;;;25.78;59.82;99284.53;5058442;28;20358;-62
2023/06/12 06:08:15;;;;;;;8.93;6.40;;;;;;;25.95;59.11;99283.41;5058415;28;20342;-63
2023/06/12 06:10:41;;;;;;;8.85;6.28;;;;;;;26.16;58.73;99282.31;5058447;28;20123;-63
2023/06/12 06:13:08;;;;;;;8.07;5.78;;;;;;;26.42;57.66;99277.66;5057850;28;20325;-63
2023/06/12 06:15:33;;;;;;;7.47;6.47;;;;;;;26.57;56.62;99272.16;5058095;28;20051;-63
2023/06/12 06:17:59;;;;;;;7.45;5.05;;;;;;;26.75;56.70;99278.88;5057381;28;20041;-63
2023/06/12 06:20:26;;;;;;;8.02;5.53;;;;;;;26.88;54.67;99275.53;5057390;28;20036;-63
2023/06/12 06:22:52;;;;;;;6.28;5.28;;;;;;;27.10;53.92;99277.91;5057192;28;20214;-63
2023/06/12 06:25:17;;;;;;;6.10;5.28;;;;;;;27.30;54.10;99283.22;5056261;28;20111;-64
2023/06/12 06:27:43;;;;;;;8.05;5.78;;;;;;;27.51;54.20;99280.34;5057113;28;20045;-63
2023/06/12 06:30:09;;;;;;;9.63;5.03;;;;;;;27.67;53.42;99290.03;5057047;28;20064;-63
2023/06/12 06:32:35;;;;;;;8.32;5.38;;;;;;;27.66;52.60;99293.84;5056694;28;20103;-62
2023/06/12 06:35:02;;;;;;;7.65;5.75;;;;;;;27.85;52.43;99288.50;5056501;28;20040;-63
2023/06/12 06:37:28;;;;;;;5.72;5.13;;;;;;;28.01;52.64;99286.44;5056881;28;20029;-63
2023/06/12 06:39:53;;;;;;;7.90;5.22;;;;;;;28.17;50.59;99285.22;5057151;28;20055;-63
2023/06/12 06:42:19;;;;;;;6.85;5.57;;;;;;;27.84;51.26;99289.59;5056236;28;20035;-64
2023/06/12 06:44:45;;;;;;;8.85;5.82;;;;;;;27.77;51.58;99283.69;5056929;28;20053;-63
2023/06/12 06:47:11;;;;;;;34.60;7.38;;;;;;;27.93;51.95;99283.25;5059021;28;20024;-63
2023/06/12 06:49:37;;;;;;;6.25;5.15;;;;;;;27.91;51.76;99282.72;5057569;28;20043;-63
2023/06/12 06:52:04;;;;;;;5.78;5.18;;;;;;;27.74;52.35;99282.34;5057797;28;20037;-62
2023/06/12 06:54:30;;;;;;;6.38;5.75;;;;;;;27.61;52.13;99278.38;5058784;28;20251;-63
2023/06/12 06:56:56;;;;;;;7.32;5.70;;;;;;;27.54;52.67;99280.59;5057710;28;20199;-62
2023/06/12 06:59:22;;;;;;;5.10;4.60;;;;;;;27.80;52.00;99283.94;5059336;28;20254;-63
2023/06/12 07:05:23;;;;;;;7.55;4.47;;;;;;;27.41;50.90;99272.25;5018169;28;20062;-64
2023/06/12 07:07:49;;;;;;;9.60;5.32;;;;;;;27.44;52.16;99271.69;5011253;28;20070;-64
2023/06/12 07:10:15;;;;;;;5.90;5.00;;;;;;;27.69;51.13;99270.69;4999588;28;20250;-64
2023/06/12 07:12:41;;;;;;;8.85;5.05;;;;;;;27.55;51.09;99265.88;4998412;28;20034;-64
2023/06/12 07:15:08;;;;;;;6.57;5.38;;;;;;;27.25;52.00;99255.25;4999799;28;20026;-64
2023/06/12 07:17:33;;;;;;;7.93;5.75;;;;;;;27.77;51.15;99268.16;4998951;28;20035;-64
2023/06/12 07:19:58;;;;;;;10.18;5.30;;;;;;;28.01;49.45;99260.03;4999199;28;20030;-64
2023/06/12 07:22:24;;;;;;;13.18;5.38;;;;;;;28.22;48.09;99264.19;4998947;28;20038;-64
2023/06/12 07:24:49;;;;;;;6.65;4.93;;;;;;;28.43;47.91;99251.19;4999015;28;20048;-64
2023/06/12 07:27:15;;;;;;;7.25;4.78;;;;;;;28.51;48.38;99257.91;5000658;28;20188;-64
2023/06/12 07:29:40;;;;;;;6.90;4.93;;;;;;;28.47;47.96;99260.41;5000310;28;20108;-64
2023/06/12 07:32:06;;;;;;;5.85;5.25;;;;;;;28.63;47.89;99254.75;4999649;28;20247;-65
2023/06/12 07:34:32;;;;;;;6.95;5.32;;;;;;;28.50;48.74;99251.63;4999052;28;20022;-64
2023/06/12 07:37:00;;;;;;;6.72;4.43;;;;;;;28.07;47.29;99253.44;5000725;28;20038;-64
2023/06/12 07:39:26;;;;;;;7.65;5.35;;;;;;;27.67;49.97;99266.34;5000215;28;20373;-64
2023/06/12 07:41:51;;;;;;;8.52;5.15;;;;;;;26.96;52.03;99258.66;5000316;28;20750;-64
2023/06/12 07:44:17;;;;;;;7.13;4.70;;;;;;;27.00;51.33;99262.47;4998744;28;20042;-65
2023/06/12 07:46:43;;;;;;;4.90;4.38;;;;;;;27.43;50.14;99265.44;4999664;28;20042;-64
2023/06/12 07:49:08;;;;;;;5.43;4.30;;;;;;;27.94;48.91;99257.66;4998617;28;21269;-65
2023/06/12 07:51:34;;;;;;;4.85;4.30;;;;;;;28.42;47.58;99254.19;4998887;28;20057;-65
2023/06/12 07:53:59;;;;;;;5.70;4.13;;;;;;;28.46;46.26;99253.31;4999638;28;20038;-65
2023/06/12 07:56:25;;;;;;;5.03;4.53;;;;;;;28.09;47.10;99253.16;4996357;28;20238;-64
2023/06/12 07:58:51;;;;;;;5.38;4.47;;;;;;;27.73;50.40;99260.88;4996398;28;20215;-64
2023/06/12 08:01:17;;;;;;;5.75;4.20;;;;;;;27.54;48.36;99258.81;4996319;28;20279;-64
2023/06/12 08:03:43;;;;;;;5.47;4.13;;;;;;;27.48;47.81;99256.44;4996885;28;20511;-64
2023/06/12 08:06:13;;;;;;;5.10;3.60;;;;;;;27.13;47.20;99252.91;4996708;28;20406;-64
2023/06/12 08:08:46;;;;;;;4.57;3.90;;;;;;;27.04;48.39;99252.66;4996978;28;20057;-65
2023/06/12 08:11:12;;;;;;;5.43;3.80;;;;;;;26.98;48.98;99252.97;4996255;28;20097;-64
2023/06/12 08:13:37;;;;;;;4.57;3.80;;;;;;;27.17;50.00;99248.53;4996369;28;20038;-64
2023/06/12 08:16:03;;;;;;;4.95;4.03;;;;;;;26.96;51.76;99250.50;4997270;28;20534;-64
2023/06/12 08:18:29;;;;;;;5.85;3.85;;;;;;;27.09;51.29;99243.69;4995975;28;20042;-64
2023/06/12 08:20:54;;;;;;;4.75;4.20;;;;;;;26.98;50.01;99250.25;4997533;28;20328;-65
2023/06/12 08:23:20;;;;;;;3.90;3.17;;;;;;;26.98;47.31;99248.34;4996158;28;20113;-64
2023/06/12 08:25:46;;;;;;;4.30;3.58;;;;;;;27.00;49.62;99248.06;4996645;28;20038;-64
2023/06/12 08:28:11;;;;;;;4.80;3.38;;;;;;;26.76;52.07;99244.38;4995635;28;20072;-64
2023/06/12 08:30:37;;;;;;;5.53;3.75;;;;;;;26.45;51.72;99239.09;4997284;28;20046;-64
2023/06/12 08:33:03;;;;;;;6.32;3.90;;;;;;;26.64;52.60;99244.72;4995599;28;20046;-64
2023/06/12 08:35:29;;;;;;;5.45;3.85;;;;;;;26.69;50.61;99237.34;4996786;28;20057;-64
2023/06/12 08:37:55;;;;;;;4.95;3.85;;;;;;;26.73;51.36;99237.59;4995380;28;20511;-65
2023/06/12 08:40:21;;;;;;;4.68;3.90;;;;;;;26.89;50.90;99230.97;4996805;28;20189;-65
2023/06/12 08:42:52;;;;;;;8.85;4.07;;;;;;;26.86;51.43;99239.69;4995749;28;20113;-65
2023/06/12 08:45:26;;;;;;;7.60;3.97;;;;;;;26.73;52.15;99230.25;4995628;28;20038;-65
2023/06/12 08:47:53;;;;;;;5.53;3.75;;;;;;;26.50;51.77;99230.13;4997055;28;20355;-64
2023/06/12 08:50:19;;;;;;;4.63;4.10;;;;;;;26.48;53.45;99222.25;4995500;28;20030;-65
2023/06/12 08:52:47;;;;;;;5.47;3.75;;;;;;;26.46;52.75;99224.44;4994217;28;20046;-65
2023/06/12 08:55:16;;;;;;;7.03;4.43;;;;;;;26.63;52.42;99222.16;4995169;28;20283;-64
2023/06/12 08:57:42;;;;;;;4.72;4.00;;;;;;;26.58;52.48;99222.19;4994031;28;20394;-65
2023/06/12 09:00:13;;;;;;;5.70;3.97;;;;;;;26.72;52.80;99215.06;4995924;28;20127;-64
2023/06/12 09:02:52;;;;;;;6.07;4.32;;;;;;;26.61;51.17;99224.34;4994914;28;20209;-64
2023/06/12 09:05:35;;;;;;;5.25;4.38;;;;;;;26.68;51.65;99215.91;4994079;28;20144;-65
2023/06/12 09:08:05;;;;;;;5.07;4.05;;;;;;;26.48;50.72;99219.53;4993834;28;20091;-65
2023/06/12 09:10:34;;;;;;;5.30;4.40;;;;;;;26.61;51.60;99220.81;4994333;28;20250;-64
2023/06/12 09:13:04;;;;;;;7.25;4.50;;;;;;;26.93;51.40;99221.19;4995635;28;20034;-65
2023/06/12 09:15:29;;;;;;;7.13;4.55;;;;;;;27.18;50.20;99214.81;4994968;28;20034;-65
2023/06/12 09:17:56;;;;;;;5.18;4.68;;;;;;;26.96;51.49;99217.91;4994613;28;20042;-64
2023/06/12 09:20:33;;;;;;;7.18;5.07;;;;;;;26.85;50.89;99212.81;4995652;28;20337;-65
2023/06/12 09:23:00;;;;;;;6.75;4.47;;;;;;;26.72;52.80;99215.06;4994914;28;20430;-64
2023/06/12 09:25:37;;;;;;;6.07;4.57;;;;;;;26.55;52.02;99213.81;4995170;28;20037;-64
2023/06/12 09:28:03;;;;;;;5.32;4.00;;;;;;;26.85;54.01;99212.81;4995884;28;20235;-65
2023/06/12 09:30:32;;;;;;;7.35;4.55;;;;;;;26.49;53.85;99204.06;4994948;28;20159;-64
2023/06/12 09:33:01;;;;;;;5.43;4.93;;;;;;;26.49;53.63;99206.78;4994142;28;20046;-64
2023/06/12 09:35:27;;;;;;;6.50;4.82;;;;;;;26.59;53.24;99193.13;4994944;28;20034;-65
2023/06/12 09:37:53;;;;;;;6.97;4.78;;;;;;;26.72;53.41;99198.75;4994217;28;20054;-64
2023/06/12 09:40:19;;;;;;;7.88;4.88;;;;;;;26.83;50.52;99199.50;4995482;28;20045;-65
2023/06/12 09:42:45;;;;;;;5.22;4.72;;;;;;;26.63;53.29;99191.50;4993718;28;20046;-64
2023/06/12 09:45:20;;;;;;;5.13;4.60;;;;;;;26.64;55.01;99193.94;4995307;28;20041;-64
2023/06/12 09:47:50;;;;;;;10.55;6.03;;;;;;;26.62;55.09;99176.28;4994906;28;20114;-64
2023/06/12 09:50:18;;;;;;;6.75;5.30;;;;;;;26.76;55.49;99179.19;4994575;28;20026;-65
2023/06/12 09:52:48;;;;;;;6.43;4.95;;;;;;;26.44;54.81;99182.38;4993811;28;20274;-64
2023/06/12 09:55:16;;;;;;;6.38;5.22;;;;;;;26.56;54.67;99180.94;4995014;28;20068;-65
2023/06/12 09:57:45;;;;;;;6.20;4.85;;;;;;;26.87;56.18;99183.47;4993513;28;20042;-65
2023/06/12 10:00:15;;;;;;;7.13;4.93;;;;;;;26.73;53.44;99183.28;4994826;28;20049;-65
2023/06/12 10:03:04;;;;;;;6.70;5.40;;;;;;;26.72;54.34;99176.22;4993443;28;20349;-64
2023/06/12 10:05:44;;;;;;;5.47;4.85;;;;;;;26.75;55.58;99177.56;4994338;28;20109;-65
2023/06/12 10:08:10;;;;;;;5.75;5.22;;;;;;;26.85;55.43;99181.03;4996360;28;20081;-64
2023/06/12 10:10:35;;;;;;;6.05;5.35;;;;;;;26.70;56.03;99173.78;4998272;28;20026;-64
2023/06/12 10:13:02;;;;;;;20.27;5.53;;;;;;;26.79;58.37;99178.63;4997921;28;20038;-65
2023/06/12 10:15:30;;;;;;;6.80;5.07;;;;;;;26.72;53.51;99177.03;4997962;28;20030;-64
2023/06/12 10:17:56;;;;;;;5.05;4.32;;;;;;;26.94;57.44;99179.34;4997635;28;20046;-64
2023/06/12 10:20:23;;;;;;;6.70;5.13;;;;;;;26.72;57.39;99170.78;4997593;28;20227;-65
2023/06/12 10:22:49;;;;;;;8.25;5.85;;;;;;;26.74;57.24;99174.03;4997866;28;20085;-65
2023/06/12 10:25:16;;;;;;;5.85;4.60;;;;;;;26.92;57.48;99175.28;4997707;28;20061;-64
2023/06/12 10:27:42;;;;;;;7.05;5.40;;;;;;;26.87;57.49;99167.97;4997252;28;20075;-65
2023/06/12 10:30:12;;;;;;;5.70;5.10;;;;;;;26.96;57.60;99176.34;4995950;28;20267;-64
2023/06/12 10:32:38;;;;;;;6.03;5.43;;;;;;;26.93;57.34;99166.84;4997496;28;20034;-65
2023/06/12 10:35:04;;;;;;;7.38;5.40;;;;;;;26.98;56.04;99164.13;4997185;28;20022;-65
2023/06/12 10:37:38;;;;;;;12.77;5.75;;;;;;;26.98;56.19;99158.69;4995811;28;20119;-65
2023/06/12 10:40:19;;;;;;;6.07;5.28;;;;;;;26.97;54.68;99162.50;4997127;28;20034;-65
2023/06/12 10:42:53;;;;;;;6.63;5.40;;;;;;;26.91;56.61;99150.00;4996646;28;20038;-65
2023/06/12 10:45:25;;;;;;;6.00;4.90;;;;;;;27.05;55.55;99155.66;4997548;28;20050;-65
2023/06/12 10:48:05;;;;;;;5.78;5.10;;;;;;;27.17;52.30;99155.31;4997598;28;20045;-65
2023/06/12 10:50:34;;;;;;;6.05;4.75;;;;;;;27.19;53.19;99153.91;4996767;28;20073;-65
2023/06/12 10:53:02;;;;;;;5.57;4.93;;;;;;;27.03;52.71;99147.78;4997583;28;20511;-65
2023/06/12 10:55:27;;;;;;;5.60;5.03;;;;;;;27.00;54.25;99142.09;4997555;28;20042;-65
2023/06/12 10:57:54;;;;;;;5.63;4.70;;;;;;;26.92;51.62;99143.47;4997541;28;20508;-64
2023/06/12 11:00:27;;;;;;;5.13;4.57;;;;;;;27.17;52.93;99130.84;4997267;28;20097;-64
2023/06/12 11:02:57;;;;;;;;;;;;;;;27.38;51.14;99136.91;4997136;28;20081;-65
2023/06/12 11:05:23;;;;;;;4.50;4.07;;;;;;;27.34;51.07;99121.16;4996902;28;19921;-65
2023/06/12 11:07:49;;;;;;;6.20;4.50;;;;;;;27.29;50.96;99136.72;5000936;28;20639;-65
2023/06/12 11:10:15;;;;;;;5.35;4.80;;;;;;;27.13;51.77;99125.16;5005646;28;20501;-65
2023/06/12 11:12:48;;;;;;;7.40;4.55;;;;;;;27.21;49.03;99126.47;4996420;28;20096;-65
2023/06/12 11:15:14;;;;;;;;;;;;;;;27.33;51.88;99129.59;4997301;28;20093;-65
2023/06/12 11:17:39;;;;;;;7.00;4.70;;;;;;;27.39;50.28;99116.78;4996940;28;20206;-65
2023/06/12 11:20:05;;;;;;;7.95;5.00;;;;;;;27.14;51.06;99115.09;4996894;28;20030;-64
2023/06/12 11:22:31;;;;;;;7.68;5.20;;;;;;;27.15;52.26;99103.13;4996216;28;20050;-65
2023/06/12 11:25:00;;;;;;;6.38;5.13;;;;;;;26.99;52.75;99107.88;4997169;28;20258;-65
2023/06/12 11:27:26;;;;;;;5.72;5.13;;;;;;;26.79;54.17;99097.97;4993375;28;20838;-64
2023/06/12 11:29:52;;;;;;;7.25;5.00;;;;;;;26.79;51.89;99110.72;4992137;28;20255;-64
2023/06/12 11:32:17;;;;;;;8.82;5.00;;;;;;;26.59;53.53;99108.97;4994980;28;20046;-64
2023/06/12 11:34:42;;;;;;;5.93;4.82;;;;;;;26.47;51.73;99108.50;4994058;28;20411;-65
2023/06/12 11:37:16;;;;;;;5.50;4.40;;;;;;;26.35;52.94;99108.84;4995695;28;20049;-65